Time;durP1;ratioP1;P1;durP2;ratioP2;P2;SDS_P1;SDS_P2;PMS_P1;PMS_P2;Temp;Humidity;BMP_temperature;BMP_pressure;BME280_temperature;BME280_humidity;BME280_pressure;Samples;Min_cycle;Max_cycle;Signal;HPM_P1;HPM_P2
2023/07/21 00:00:29;;;;;;;2.97;1.92;;;;;;;;;;4991357;28;20038;-70
2023/07/21 00:03:14;;;;;;;5.43;2.10;;;;;;;;;;4991015;28;20450;-71
2023/07/21 00:06:00;;;;;;;3.10;2.03;;;;;;;;;;4999968;28;20071;-70
2023/07/21 00:08:45;;;;;;;3.70;2.10;;;;;;;;;;4992021;28;20038;-69
2023/07/21 00:11:31;;;;;;;3.92;2.20;;;;;;;;;;4997950;28;20081;-69
2023/07/21 00:14:16;;;;;;;3.95;2.40;;;;;;;;;;5001774;28;20124;-68
2023/07/21 00:17:04;;;;;;;3.63;1.88;;;;;;;;;;4989255;28;20026;-69
2023/07/21 00:19:51;;;;;;;2.55;1.65;;;;;;;;;;4985826;28;20034;-68
2023/07/21 00:22:40;;;;;;;3.90;1.83;;;;;;;;;;4999450;28;20121;-71
2023/07/21 00:25:25;;;;;;;3.08;1.83;;;;;;;;;;4991109;28;20041;-66
2023/07/21 00:28:10;;;;;;;3.55;2.00;;;;;;;;;;4974975;28;20061;-69
2023/07/21 00:30:55;;;;;;;3.75;1.70;;;;;;;;;;4998710;28;20054;-70
2023/07/21 00:33:41;;;;;;;4.78;2.10;;;;;;;;;;5000299;28;20460;-69
2023/07/21 00:36:26;;;;;;;1.88;1.65;;;;;;;;;;5005284;28;20064;-69
2023/07/21 00:39:13;;;;;;;6.47;2.78;;;;;;;;;;4994779;28;20297;-70
2023/07/21 00:41:58;;;;;;;3.92;2.00;;;;;;;;;;4990220;28;20034;-68
2023/07/21 00:44:44;;;;;;;3.28;1.63;;;;;;;;;;5006259;28;20029;-65
2023/07/21 00:47:29;;;;;;;3.10;1.73;;;;;;;;;;4996613;28;20030;-71
2023/07/21 00:50:15;;;;;;;2.78;2.03;;;;;;;;;;4997146;28;20112;-71
2023/07/21 00:53:00;;;;;;;3.50;1.92;;;;;;;;;;4999397;28;20109;-71
2023/07/21 00:55:47;;;;;;;4.90;1.90;;;;;;;;;;4993083;28;20386;-71
2023/07/21 00:58:32;;;;;;;4.30;2.15;;;;;;;;;;5004338;28;20034;-71
2023/07/21 01:01:17;;;;;;;2.35;1.60;;;;;;;;;;4981737;28;20041;-72
2023/07/21 01:04:03;;;;;;;3.53;1.63;;;;;;;;;;4999823;28;20034;-70
2023/07/21 01:06:48;;;;;;;3.55;2.00;;;;;;;;;;5005431;28;20100;-70
2023/07/21 01:09:37;;;;;;;3.05;1.88;;;;;;;;;;4991337;28;20049;-71
2023/07/21 01:12:22;;;;;;;3.13;1.45;;;;;;;;;;4991716;28;20031;-71
2023/07/21 01:15:09;;;;;;;3.95;2.15;;;;;;;;;;5005491;28;20196;-70
2023/07/21 01:17:55;;;;;;;6.43;2.35;;;;;;;;;;4999496;28;20037;-70
2023/07/21 01:20:41;;;;;;;3.67;2.05;;;;;;;;;;4989550;28;20046;-70
2023/07/21 01:23:42;;;;;;;3.58;2.03;;;;;;;;;;4990961;28;20147;-67
2023/07/21 01:26:28;;;;;;;7.32;2.80;;;;;;;;;;5000404;28;20401;-67
2023/07/21 01:29:15;;;;;;;5.20;2.90;;;;;;;;;;4992834;28;20126;-69
2023/07/21 01:32:04;;;;;;;4.72;2.47;;;;;;;;;;4994519;28;20032;-68
2023/07/21 01:34:50;;;;;;;4.07;1.52;;;;;;;;;;4985216;28;20442;-66
2023/07/21 01:37:39;;;;;;;3.33;1.90;;;;;;;;;;4985350;28;20037;-70
2023/07/21 01:40:25;;;;;;;4.72;2.20;;;;;;;;;;4999417;28;20422;-72
2023/07/21 01:43:11;;;;;;;2.90;2.22;;;;;;;;;;4988152;28;20140;-72
2023/07/21 01:45:56;;;;;;;4.00;2.35;;;;;;;;;;4989290;28;20022;-72
2023/07/21 01:48:43;;;;;;;4.82;2.22;;;;;;;;;;4987576;28;20031;-72
2023/07/21 01:51:29;;;;;;;3.00;1.40;;;;;;;;;;4977941;28;20038;-73
2023/07/21 01:54:19;;;;;;;3.75;1.83;;;;;;;;;;5004995;28;20083;-73
2023/07/21 01:57:06;;;;;;;3.10;2.05;;;;;;;;;;5005537;28;20254;-67
2023/07/21 01:59:53;;;;;;;3.65;1.95;;;;;;;;;;4998934;28;20034;-71
2023/07/21 02:02:44;;;;;;;4.82;2.05;;;;;;;;;;4990615;28;20417;-71
2023/07/21 02:05:29;;;;;;;5.10;2.08;;;;;;;;;;4998159;28;20345;-71
2023/07/21 02:08:15;;;;;;;3.83;2.08;;;;;;;;;;4992445;28;20091;-71
2023/07/21 02:11:00;;;;;;;3.67;2.17;;;;;;;;;;4999828;28;20446;-70
2023/07/21 02:13:46;;;;;;;6.30;3.05;;;;;;;;;;4976463;28;20034;-71
2023/07/21 02:16:31;;;;;;;5.72;2.25;;;;;;;;;;4990301;28;20520;-67
2023/07/21 02:19:17;;;;;;;2.85;1.95;;;;;;;;;;5006485;28;20080;-70
2023/07/21 02:22:03;;;;;;;3.22;2.00;;;;;;;;;;4987192;28;20466;-69
2023/07/21 02:24:48;;;;;;;2.35;1.60;;;;;;;;;;4990204;28;20461;-69
2023/07/21 02:27:33;;;;;;;4.10;2.00;;;;;;;;;;5001124;28;20122;-70
2023/07/21 02:30:19;;;;;;;4.35;2.33;;;;;;;;;;4999421;28;20465;-69
2023/07/21 02:33:04;;;;;;;3.67;2.03;;;;;;;;;;4978640;28;20030;-70
2023/07/21 02:35:49;;;;;;;3.45;1.63;;;;;;;;;;4998787;28;20057;-71
2023/07/21 02:38:34;;;;;;;3.13;1.73;;;;;;;;;;5012974;28;20060;-70
2023/07/21 02:41:19;;;;;;;2.78;2.05;;;;;;;;;;4996118;28;20057;-71
2023/07/21 02:44:05;;;;;;;4.90;2.33;;;;;;;;;;4997013;28;20121;-71
2023/07/21 02:46:51;;;;;;;6.32;2.17;;;;;;;;;;5001685;28;20034;-72
2023/07/21 02:49:37;;;;;;;3.25;2.03;;;;;;;;;;4983236;28;20069;-71
2023/07/21 02:52:22;;;;;;;3.47;1.98;;;;;;;;;;4988585;28;20381;-67
2023/07/21 02:55:08;;;;;;;3.03;2.22;;;;;;;;;;5006576;28;20444;-67
2023/07/21 02:57:53;;;;;;;5.30;2.47;;;;;;;;;;4994347;28;20397;-68
2023/07/21 03:00:39;;;;;;;4.95;2.28;;;;;;;;;;5008208;28;20080;-71
2023/07/21 03:03:26;;;;;;;3.28;2.22;;;;;;;;;;5001721;28;20363;-68
2023/07/21 03:06:12;;;;;;;3.92;2.05;;;;;;;;;;4974304;28;20343;-69
2023/07/21 03:08:57;;;;;;;4.07;2.28;;;;;;;;;;4991530;28;20086;-67
2023/07/21 03:11:43;;;;;;;3.25;1.77;;;;;;;;;;5002686;28;20031;-67
2023/07/21 03:14:28;;;;;;;3.25;1.80;;;;;;;;;;4988124;28;20041;-72
2023/07/21 03:17:13;;;;;;;3.90;1.95;;;;;;;;;;4996811;28;20041;-69
2023/07/21 03:19:59;;;;;;;4.43;2.63;;;;;;;;;;5017630;28;20026;-68
2023/07/21 03:22:45;;;;;;;5.35;2.42;;;;;;;;;;4992825;28;20456;-69
2023/07/21 03:25:31;;;;;;;3.75;1.83;;;;;;;;;;5001697;28;20044;-69
2023/07/21 03:28:16;;;;;;;4.90;2.90;;;;;;;;;;4995635;28;20326;-70
2023/07/21 03:31:02;;;;;;;3.75;2.05;;;;;;;;;;5009206;28;20032;-68
2023/07/21 03:33:47;;;;;;;7.20;2.28;;;;;;;;;;5009889;28;20056;-70
2023/07/21 03:36:33;;;;;;;3.50;2.10;;;;;;;;;;4992034;28;20026;-68
2023/07/21 03:39:18;;;;;;;2.55;1.65;;;;;;;;;;4996956;28;20096;-68
2023/07/21 03:42:03;;;;;;;5.50;2.22;;;;;;;;;;4993408;28;20450;-68
2023/07/21 03:44:49;;;;;;;4.32;1.90;;;;;;;;;;5002804;28;20397;-68
2023/07/21 03:47:35;;;;;;;6.55;2.08;;;;;;;;;;5004467;28;20458;-73
2023/07/21 03:50:20;;;;;;;4.60;2.13;;;;;;;;;;5016534;28;20037;-68
2023/07/21 03:53:05;;;;;;;4.10;1.83;;;;;;;;;;4989239;28;20097;-69
2023/07/21 03:55:50;;;;;;;3.78;1.65;;;;;;;;;;5006368;28;20041;-71
2023/07/21 03:58:36;;;;;;;5.85;2.00;;;;;;;;;;4990482;28;20470;-70
2023/07/21 04:01:21;;;;;;;4.30;2.28;;;;;;;;;;5011821;28;20036;-70
2023/07/21 04:04:06;;;;;;;5.22;2.22;;;;;;;;;;5002649;28;20073;-73
2023/07/21 04:06:51;;;;;;;3.53;2.13;;;;;;;;;;4994476;28;20181;-71
2023/07/21 04:09:37;;;;;;;6.57;2.33;;;;;;;;;;5007468;28;20052;-68
2023/07/21 04:12:22;;;;;;;4.38;1.98;;;;;;;;;;4987499;28;20066;-68
2023/07/21 04:15:07;;;;;;;3.42;1.95;;;;;;;;;;4995914;28;20460;-68
2023/07/21 04:17:53;;;;;;;3.17;2.20;;;;;;;;;;4996760;28;20030;-69
2023/07/21 04:20:38;;;;;;;7.10;1.75;;;;;;;;;;5000659;28;20061;-69
2023/07/21 04:23:23;;;;;;;2.60;1.70;;;;;;;;;;4999090;28;20030;-72
2023/07/21 04:26:11;;;;;;;4.47;1.73;;;;;;;;;;5009000;28;20029;-71
2023/07/21 04:28:58;;;;;;;3.10;1.90;;;;;;;;;;4988668;28;20055;-69
2023/07/21 04:31:43;;;;;;;2.45;2.00;;;;;;;;;;5000574;28;20133;-68
2023/07/21 04:34:29;;;;;;;3.22;1.90;;;;;;;;;;5002226;28;20049;-68
2023/07/21 04:37:14;;;;;;;3.78;1.95;;;;;;;;;;4992433;28;20469;-68
2023/07/21 04:40:00;;;;;;;8.48;2.45;;;;;;;;;;5001424;28;20030;-68
2023/07/21 04:42:45;;;;;;;3.38;2.25;;;;;;;;;;4999944;28;20034;-69
2023/07/21 04:45:30;;;;;;;4.43;2.22;;;;;;;;;;4993391;28;20047;-74
2023/07/21 04:48:16;;;;;;;3.17;2.05;;;;;;;;;;4999769;28;20036;-72
2023/07/21 04:51:01;;;;;;;2.75;1.80;;;;;;;;;;5009781;28;20432;-73
2023/07/21 04:53:46;;;;;;;3.10;1.90;;;;;;;;;;5003055;28;20049;-72
2023/07/21 04:56:32;;;;;;;3.75;2.55;;;;;;;;;;5008704;28;20470;-72
2023/07/21 04:59:18;;;;;;;3.13;2.03;;;;;;;;;;4990488;28;20036;-71
2023/07/21 05:02:04;;;;;;;6.15;1.80;;;;;;;;;;4996168;28;20121;-69
2023/07/21 05:04:49;;;;;;;3.17;1.92;;;;;;;;;;5003100;28;20049;-72
2023/07/21 05:07:34;;;;;;;4.75;2.50;;;;;;;;;;4998999;28;20033;-71
2023/07/21 05:10:20;;;;;;;3.58;2.10;;;;;;;;;;5012514;28;20025;-70
2023/07/21 05:13:06;;;;;;;4.45;2.22;;;;;;;;;;4988901;28;20057;-70
2023/07/21 05:15:51;;;;;;;3.70;2.13;;;;;;;;;;4993768;28;20124;-70
2023/07/21 05:18:37;;;;;;;3.80;1.65;;;;;;;;;;4994652;28;20061;-68
2023/07/21 05:21:23;;;;;;;5.32;2.75;;;;;;;;;;4987831;28;20050;-69
2023/07/21 05:24:08;;;;;;;3.38;1.90;;;;;;;;;;4980728;28;20038;-69
2023/07/21 05:26:53;;;;;;;4.28;2.10;;;;;;;;;;4982568;28;20022;-67
2023/07/21 05:29:38;;;;;;;3.47;2.10;;;;;;;;;;4982980;28;20025;-67
2023/07/21 05:32:23;;;;;;;5.47;2.72;;;;;;;;;;4978556;28;20525;-69
2023/07/21 05:35:09;;;;;;;2.92;1.90;;;;;;;;;;4981471;28;20030;-67
2023/07/21 05:37:54;;;;;;;5.40;2.38;;;;;;;;;;4977655;28;20677;-72
2023/07/21 05:40:41;;;;;;;6.40;2.55;;;;;;;;;;4980398;28;20098;-71
2023/07/21 05:43:26;;;;;;;3.22;1.98;;;;;;;;;;4997450;28;20509;-72
2023/07/21 05:46:12;;;;;;;5.13;2.15;;;;;;;;;;4988203;28;20459;-72
2023/07/21 05:48:57;;;;;;;3.00;1.80;;;;;;;;;;4991801;28;20022;-74
2023/07/21 05:51:43;;;;;;;6.57;2.42;;;;;;;;;;5005458;28;20040;-75
2023/07/21 05:54:28;;;;;;;4.38;2.05;;;;;;;;;;4972335;28;20030;-68
2023/07/21 05:57:13;;;;;;;10.32;2.60;;;;;;;;;;4998979;28;20124;-70
2023/07/21 05:59:59;;;;;;;14.00;3.17;;;;;;;;;;4987291;28;20034;-66
2023/07/21 06:02:44;;;;;;;4.20;1.90;;;;;;;;;;4987204;28;20417;-66
2023/07/21 06:05:30;;;;;;;3.00;1.80;;;;;;;;;;4987112;28;20032;-69
2023/07/21 06:08:17;;;;;;;3.00;1.83;;;;;;;;;;4999467;28;20573;-67
2023/07/21 06:11:02;;;;;;;4.15;1.77;;;;;;;;;;5000676;28;20044;-66
2023/07/21 06:13:48;;;;;;;3.97;2.08;;;;;;;;;;4986297;28;20026;-70
2023/07/21 06:16:33;;;;;;;4.65;2.00;;;;;;;;;;4994391;28;20038;-69
2023/07/21 06:19:19;;;;;;;4.20;1.98;;;;;;;;;;5002513;28;20030;-70
2023/07/21 06:22:04;;;;;;;4.10;2.03;;;;;;;;;;4985445;28;20057;-69
2023/07/21 06:24:49;;;;;;;4.25;2.10;;;;;;;;;;4986120;28;20026;-68
2023/07/21 06:27:34;;;;;;;7.00;2.03;;;;;;;;;;4982239;28;20381;-70
2023/07/21 06:30:20;;;;;;;3.08;1.65;;;;;;;;;;4990432;28;20463;-72
2023/07/21 06:33:05;;;;;;;2.30;1.45;;;;;;;;;;4995107;28;20442;-69
2023/07/21 06:35:52;;;;;;;3.72;1.92;;;;;;;;;;4991031;28;20534;-69
2023/07/21 06:38:37;;;;;;;2.95;1.60;;;;;;;;;;5007005;28;20462;-69
2023/07/21 06:41:23;;;;;;;4.07;2.15;;;;;;;;;;4994351;28;20010;-68
2023/07/21 06:44:08;;;;;;;3.88;1.65;;;;;;;;;;4995616;28;20030;-69
2023/07/21 06:46:53;;;;;;;3.88;1.83;;;;;;;;;;5000881;28;20745;-70
2023/07/21 06:49:38;;;;;;;5.47;1.98;;;;;;;;;;4991880;28;20015;-67
2023/07/21 06:52:24;;;;;;;2.80;1.83;;;;;;;;;;4990549;28;20092;-72
2023/07/21 06:55:09;;;;;;;5.43;2.08;;;;;;;;;;4989734;28;20069;-71
2023/07/21 06:57:54;;;;;;;2.78;1.70;;;;;;;;;;4999337;28;20056;-73
2023/07/21 07:00:39;;;;;;;3.60;1.88;;;;;;;;;;4992479;28;20022;-70
2023/07/21 07:03:26;;;;;;;4.25;1.73;;;;;;;;;;4993155;28;20042;-74
2023/07/21 07:06:11;;;;;;;3.80;1.70;;;;;;;;;;4989076;28;20033;-74
2023/07/21 07:08:56;;;;;;;2.60;1.70;;;;;;;;;;4988962;28;21773;-68
2023/07/21 07:11:41;;;;;;;3.70;1.90;;;;;;;;;;4989829;28;20061;-68
2023/07/21 07:14:27;;;;;;;3.35;1.75;;;;;;;;;;4988725;28;20058;-68
2023/07/21 07:17:13;;;;;;;4.57;1.92;;;;;;;;;;4988934;28;20026;-68
2023/07/21 07:19:58;;;;;;;3.55;1.67;;;;;;;;;;4994311;28;20125;-67
2023/07/21 07:22:44;;;;;;;6.32;2.10;;;;;;;;;;4987828;28;20034;-67
2023/07/21 07:25:29;;;;;;;4.65;2.05;;;;;;;;;;4976433;28;20030;-66
2023/07/21 07:28:15;;;;;;;3.53;1.88;;;;;;;;;;4995214;28;20034;-67
2023/07/21 07:31:04;;;;;;;5.28;2.47;;;;;;;;;;4989740;28;20025;-70
2023/07/21 07:33:49;;;;;;;8.88;2.90;;;;;;;;;;5002801;28;20334;-68
2023/07/21 07:36:34;;;;;;;4.70;2.45;;;;;;;;;;4987963;28;20046;-69
2023/07/21 07:39:19;;;;;;;6.15;1.90;;;;;;;;;;4992087;28;20464;-69
2023/07/21 07:42:05;;;;;;;5.93;2.25;;;;;;;;;;4989661;28;20048;-68
2023/07/21 07:44:53;;;;;;;6.95;2.33;;;;;;;;;;4989348;28;20025;-70
2023/07/21 07:47:38;;;;;;;3.08;1.40;;;;;;;;;;5000954;28;20034;-66
2023/07/21 07:50:24;;;;;;;5.47;2.05;;;;;;;;;;4998265;28;20026;-69
2023/07/21 07:53:09;;;;;;;2.60;1.98;;;;;;;;;;4987666;28;20088;-69
2023/07/21 07:55:54;;;;;;;3.25;1.80;;;;;;;;;;4989193;28;20018;-67
2023/07/21 07:58:39;;;;;;;8.45;2.28;;;;;;;;;;4988629;28;20482;-66
2023/07/21 08:01:26;;;;;;;5.47;1.52;;;;;;;;;;4988653;28;20378;-68
2023/07/21 08:04:11;;;;;;;4.93;2.05;;;;;;;;;;4971749;28;20027;-69
2023/07/21 08:06:56;;;;;;;4.22;1.70;;;;;;;;;;5000556;28;20026;-69
2023/07/21 08:09:42;;;;;;;2.10;1.60;;;;;;;;;;4974439;28;20022;-67
2023/07/21 08:12:27;;;;;;;2.17;1.65;;;;;;;;;;4988447;28;20476;-66
2023/07/21 08:15:12;;;;;;;2.35;1.30;;;;;;;;;;4988385;28;20051;-68
2023/07/21 08:17:57;;;;;;;2.65;1.70;;;;;;;;;;5000370;28;20088;-69
2023/07/21 08:20:43;;;;;;;2.50;1.63;;;;;;;;;;4989537;28;20038;-67
2023/07/21 08:23:28;;;;;;;2.78;1.67;;;;;;;;;;4986922;28;20034;-67
2023/07/21 08:26:13;;;;;;;3.00;1.80;;;;;;;;;;4993719;28;20031;-70
2023/07/21 08:28:59;;;;;;;2.47;1.60;;;;;;;;;;4990534;28;20029;-69
2023/07/21 08:31:44;;;;;;;3.50;1.95;;;;;;;;;;4997279;28;20093;-69
2023/07/21 08:34:29;;;;;;;5.93;1.83;;;;;;;;;;4992996;28;20060;-70
2023/07/21 08:37:14;;;;;;;3.85;1.50;;;;;;;;;;4990013;28;20061;-70
2023/07/21 08:40:00;;;;;;;6.15;1.50;;;;;;;;;;4990370;28;20030;-70
2023/07/21 08:42:45;;;;;;;3.28;1.80;;;;;;;;;;4986459;28;20062;-69
2023/07/21 08:45:33;;;;;;;5.97;1.77;;;;;;;;;;4986096;28;20508;-70
2023/07/21 08:48:20;;;;;;;3.88;1.75;;;;;;;;;;4998269;28;20036;-69
2023/07/21 08:51:06;;;;;;;4.95;1.73;;;;;;;;;;4997586;28;20034;-70
2023/07/21 08:53:51;;;;;;;4.10;2.10;;;;;;;;;;4999459;28;20034;-70
2023/07/21 08:56:36;;;;;;;3.28;1.50;;;;;;;;;;4983974;28;20036;-72
2023/07/21 08:59:21;;;;;;;3.97;1.67;;;;;;;;;;4998458;28;20145;-68
2023/07/21 09:02:07;;;;;;;5.80;1.50;;;;;;;;;;4987352;28;20122;-70
2023/07/21 09:04:52;;;;;;;6.47;1.85;;;;;;;;;;4988587;28;20457;-70
2023/07/21 09:07:40;;;;;;;3.17;1.50;;;;;;;;;;4999294;28;20057;-69
2023/07/21 09:10:30;;;;;;;5.70;2.00;;;;;;;;;;4987493;28;20037;-67
2023/07/21 09:13:16;;;;;;;4.88;1.33;;;;;;;;;;4998826;28;20561;-68
2023/07/21 09:16:05;;;;;;;1.30;1.17;;;;;;;;;;4989250;28;20022;-68
2023/07/21 09:18:52;;;;;;;3.95;1.77;;;;;;;;;;4997496;28;20046;-69
2023/07/21 09:21:37;;;;;;;3.38;1.60;;;;;;;;;;4988194;28;20050;-74
2023/07/21 09:24:22;;;;;;;2.20;1.38;;;;;;;;;;4984476;28;20038;-74
2023/07/21 09:27:12;;;;;;;3.75;2.03;;;;;;;;;;4991097;28;20022;-72
2023/07/21 09:30:00;;;;;;;5.20;1.70;;;;;;;;;;4986492;28;20026;-72
2023/07/21 09:32:45;;;;;;;2.20;1.27;;;;;;;;;;4985019;28;20022;-72
2023/07/21 09:35:31;;;;;;;5.32;1.60;;;;;;;;;;4984409;28;20048;-68
2023/07/21 09:38:16;;;;;;;3.28;1.60;;;;;;;;;;4985783;28;20359;-73
2023/07/21 09:41:02;;;;;;;11.88;1.70;;;;;;;;;;4985395;28;20049;-71
2023/07/21 09:43:48;;;;;;;2.25;1.27;;;;;;;;;;4985695;28;20038;-71
2023/07/21 09:46:33;;;;;;;4.72;1.75;;;;;;;;;;4966154;28;20264;-72
2023/07/21 09:49:18;;;;;;;3.83;1.60;;;;;;;;;;4989406;28;20124;-73
2023/07/21 09:52:04;;;;;;;3.28;1.80;;;;;;;;;;4985102;28;20088;-69
2023/07/21 09:54:55;;;;;;;2.42;1.33;;;;;;;;;;4970124;28;20030;-69
2023/07/21 09:57:42;;;;;;;3.33;1.50;;;;;;;;;;4988271;28;20393;-68
2023/07/21 10:00:28;;;;;;;1.85;1.30;;;;;;;;;;4999554;28;20544;-67
2023/07/21 10:03:14;;;;;;;5.20;4.55;;;;;;;;;;4988442;28;20668;-69
2023/07/21 10:06:01;;;;;;;3.03;2.35;;;;;;;;;;4997135;28;20421;-67
2023/07/21 10:08:46;;;;;;;6.03;1.70;;;;;;;;;;4984334;28;20651;-64
2023/07/21 10:11:31;;;;;;;4.75;2.40;;;;;;;;;;4986794;28;20038;-66
2023/07/21 10:14:29;;;;;;;3.33;1.52;;;;;;;;;;4993534;28;20488;-70
2023/07/21 10:17:22;;;;;;;5.80;2.15;;;;;;;;;;4984341;28;20122;-70
2023/07/21 10:20:08;;;;;;;3.53;1.58;;;;;;;;;;4984600;28;20365;-69
2023/07/21 10:22:56;;;;;;;5.47;2.88;;;;;;;;;;4980445;28;20072;-69
2023/07/21 10:25:46;;;;;;;3.27;1.63;;;;;;;;;;4994497;28;20026;-70
2023/07/21 10:28:36;;;;;;;4.68;1.73;;;;;;;;;;4985274;28;20561;-69
2023/07/21 10:31:25;;;;;;;2.40;1.63;;;;;;;;;;4983082;28;20486;-78
2023/07/21 10:34:11;;;;;;;3.40;1.67;;;;;;;;;;4982801;28;20501;-65
2023/07/21 10:37:02;;;;;;;3.08;1.50;;;;;;;;;;5004470;28;20283;-70
2023/07/21 10:39:54;;;;;;;4.70;1.65;;;;;;;;;;4987182;28;20689;-66
2023/07/21 10:42:40;;;;;;;3.17;1.45;;;;;;;;;;4984214;28;20066;-66
2023/07/21 10:45:27;;;;;;;1.42;1.15;;;;;;;;;;4983144;28;20116;-67
2023/07/21 10:48:13;;;;;;;2.97;1.70;;;;;;;;;;4983969;28;20026;-66
2023/07/21 10:51:00;;;;;;;2.47;1.50;;;;;;;;;;4970363;28;20037;-77
2023/07/21 10:53:45;;;;;;;2.65;1.48;;;;;;;;;;4969260;28;20054;-75
2023/07/21 10:56:47;;;;;;;2.78;1.63;;;;;;;;;;4971735;28;20462;-75
2023/07/21 10:59:33;;;;;;;2.05;1.48;;;;;;;;;;4998426;28;20030;-73
2023/07/21 11:02:23;;;;;;;3.28;1.65;;;;;;;;;;4972860;28;20066;-73
2023/07/21 11:05:10;;;;;;;4.72;1.65;;;;;;;;;;4989310;28;20022;-73
2023/07/21 11:07:55;;;;;;;2.70;1.27;;;;;;;;;;4987344;28;20504;-74
2023/07/21 11:10:40;;;;;;;2.38;1.70;;;;;;;;;;4987118;28;20019;-74
2023/07/21 11:13:26;;;;;;;2.92;1.50;;;;;;;;;;4985446;28;20038;-75
2023/07/21 11:16:12;;;;;;;3.33;2.03;;;;;;;;;;4987604;28;20022;-74
2023/07/21 11:18:57;;;;;;;2.67;1.60;;;;;;;;;;4993501;28;20030;-74
2023/07/21 11:21:43;;;;;;;4.97;1.73;;;;;;;;;;4995674;28;20077;-76
2023/07/21 11:24:29;;;;;;;8.93;1.70;;;;;;;;;;4996219;28;20113;-74
2023/07/21 11:27:15;;;;;;;4.60;2.03;;;;;;;;;;5002903;28;20049;-77
2023/07/21 11:30:01;;;;;;;2.85;1.42;;;;;;;;;;4987421;28;20045;-74
2023/07/21 11:32:46;;;;;;;4.25;1.38;;;;;;;;;;4995117;28;20109;-74
2023/07/21 11:35:32;;;;;;;2.40;1.90;;;;;;;;;;5008415;28;20041;-77
2023/07/21 11:38:18;;;;;;;4.43;1.60;;;;;;;;;;4988926;28;20034;-74
2023/07/21 11:41:03;;;;;;;2.58;1.70;;;;;;;;;;4983987;28;20022;-74
2023/07/21 11:43:49;;;;;;;2.15;1.52;;;;;;;;;;4992549;28;20069;-70
2023/07/21 11:46:34;;;;;;;4.00;1.65;;;;;;;;;;5002878;28;20528;-74
2023/07/21 11:49:23;;;;;;;3.05;1.92;;;;;;;;;;4998932;28;20029;-74
2023/07/21 11:52:11;;;;;;;1.88;1.40;;;;;;;;;;4974917;28;20049;-75
2023/07/21 11:54:57;;;;;;;1.65;1.35;;;;;;;;;;4984066;28;20060;-75
2023/07/21 11:57:42;;;;;;;3.20;1.63;;;;;;;;;;4994001;28;20030;-75
2023/07/21 12:00:28;;;;;;;4.28;2.10;;;;;;;;;;5003660;28;20041;-73
2023/07/21 12:03:14;;;;;;;4.40;1.58;;;;;;;;;;4977332;28;20121;-82
2023/07/21 12:05:59;;;;;;;4.80;2.03;;;;;;;;;;4993372;28;20026;-75
2023/07/21 12:08:44;;;;;;;3.78;1.83;;;;;;;;;;4988530;28;20045;-77
2023/07/21 12:11:29;;;;;;;3.42;1.58;;;;;;;;;;4996285;28;20791;-75
2023/07/21 12:14:15;;;;;;;5.32;2.03;;;;;;;;;;4996356;28;20028;-78
2023/07/21 12:17:00;;;;;;;3.28;1.77;;;;;;;;;;4992369;28;20390;-76
2023/07/21 12:19:45;;;;;;;4.70;1.83;;;;;;;;;;4998369;28;20088;-76
2023/07/21 12:22:30;;;;;;;6.50;2.30;;;;;;;;;;5008589;28;20045;-73
2023/07/21 12:25:16;;;;;;;6.47;2.17;;;;;;;;;;4993487;28;20031;-69
2023/07/21 12:28:04;;;;;;;6.32;2.22;;;;;;;;;;4983382;28;20034;-71
2023/07/21 12:30:49;;;;;;;4.05;1.92;;;;;;;;;;4986637;28;20034;-68
2023/07/21 12:33:35;;;;;;;3.80;2.03;;;;;;;;;;4995008;28;20022;-69
2023/07/21 12:36:20;;;;;;;2.88;1.70;;;;;;;;;;4997912;28;20041;-68
2023/07/21 12:39:09;;;;;;;11.25;3.10;;;;;;;;;;4988754;28;20030;-77
2023/07/21 12:41:55;;;;;;;;;;;;;;;;;;4998018;28;20568;-70
2023/07/21 12:44:40;;;;;;;5.65;2.60;;;;;;;;;;4995123;28;19917;-74
2023/07/21 12:47:25;;;;;;;3.95;2.08;;;;;;;;;;4991876;28;20497;-74
2023/07/21 12:50:10;;;;;;;4.63;1.90;;;;;;;;;;4987761;28;20022;-74
2023/07/21 12:52:56;;;;;;;2.95;2.08;;;;;;;;;;4985828;28;20034;-73
2023/07/21 12:55:42;;;;;;;4.53;2.30;;;;;;;;;;4989055;28;20137;-74
2023/07/21 12:58:27;;;;;;;3.05;1.67;;;;;;;;;;5003648;28;20057;-74
2023/07/21 13:01:12;;;;;;;4.80;2.28;;;;;;;;;;4990295;28;20490;-74
2023/07/21 13:03:57;;;;;;;3.45;1.70;;;;;;;;;;4981751;28;20114;-75
2023/07/21 13:06:43;;;;;;;3.20;1.83;;;;;;;;;;4983461;28;20057;-74
2023/07/21 13:09:29;;;;;;;2.38;1.73;;;;;;;;;;4964618;28;20038;-75
2023/07/21 13:12:16;;;;;;;4.80;2.28;;;;;;;;;;4991952;28;20018;-76
2023/07/21 13:15:02;;;;;;;5.13;1.65;;;;;;;;;;4988837;28;20042;-77
2023/07/21 13:17:47;;;;;;;2.88;1.95;;;;;;;;;;4995370;28;20030;-78
2023/07/21 13:20:33;;;;;;;7.00;2.47;;;;;;;;;;5002054;28;20125;-76
2023/07/21 13:23:18;;;;;;;5.18;2.40;;;;;;;;;;4989939;28;20461;-75
2023/07/21 13:26:05;;;;;;;4.43;2.08;;;;;;;;;;4987136;28;20022;-74
2023/07/21 13:28:50;;;;;;;2.33;1.70;;;;;;;;;;4977475;28;20153;-75
2023/07/21 13:32:05;;;;;;;4.85;3.38;;;;;;;;;;4993330;28;20645;-74
2023/07/21 13:34:55;;;;;;;3.53;1.67;;;;;;;;;;5001745;28;20026;-75
2023/07/21 13:37:40;;;;;;;4.40;1.95;;;;;;;;;;4979611;28;20100;-74
2023/07/21 13:40:25;;;;;;;4.97;1.83;;;;;;;;;;4994812;28;20127;-71
2023/07/21 13:43:11;;;;;;;2.88;1.70;;;;;;;;;;4987934;28;20121;-70
2023/07/21 13:45:56;;;;;;;6.55;2.00;;;;;;;;;;4982367;28;20026;-69
2023/07/21 13:48:41;;;;;;;2.88;1.90;;;;;;;;;;4983141;28;20026;-73
2023/07/21 13:51:26;;;;;;;4.20;1.90;;;;;;;;;;4969692;28;20165;-73
2023/07/21 13:54:12;;;;;;;4.03;1.35;;;;;;;;;;4985588;28;20065;-75
2023/07/21 13:56:57;;;;;;;3.97;1.70;;;;;;;;;;4986419;28;20022;-80
2023/07/21 13:59:43;;;;;;;4.28;1.65;;;;;;;;;;4997554;28;20470;-81
2023/07/21 14:02:28;;;;;;;5.47;1.77;;;;;;;;;;4986782;28;20536;-77
2023/07/21 14:05:14;;;;;;;2.47;1.63;;;;;;;;;;4982242;28;20022;-76
2023/07/21 14:07:59;;;;;;;7.03;2.80;;;;;;;;;;4973817;28;20026;-74
2023/07/21 14:10:44;;;;;;;3.97;2.28;;;;;;;;;;4998819;28;20084;-79
2023/07/21 14:13:30;;;;;;;2.97;1.88;;;;;;;;;;4987511;28;20037;-74
2023/07/21 14:16:15;;;;;;;3.92;2.00;;;;;;;;;;4982041;28;20171;-74
2023/07/21 14:19:02;;;;;;;3.22;1.80;;;;;;;;;;4985226;28;20367;-72
2023/07/21 14:21:48;;;;;;;6.25;2.05;;;;;;;;;;4996585;28;20077;-74
2023/07/21 14:24:33;;;;;;;2.92;1.77;;;;;;;;;;4972238;28;20413;-73
2023/07/21 14:27:18;;;;;;;4.32;1.67;;;;;;;;;;4987631;28;20026;-72
2023/07/21 14:30:04;;;;;;;5.60;2.22;;;;;;;;;;4982969;28;20180;-76
2023/07/21 14:32:49;;;;;;;5.55;2.28;;;;;;;;;;4984351;28;20030;-70
2023/07/21 14:35:34;;;;;;;6.22;2.20;;;;;;;;;;4986307;28;20121;-71
2023/07/21 14:38:21;;;;;;;4.60;1.60;;;;;;;;;;4995218;28;20038;-72
2023/07/21 14:41:06;;;;;;;4.75;1.98;;;;;;;;;;4983264;28;20042;-72
2023/07/21 14:43:51;;;;;;;6.85;2.40;;;;;;;;;;4984324;28;20101;-77
2023/07/21 14:46:36;;;;;;;4.25;2.08;;;;;;;;;;4983166;28;20080;-73
2023/07/21 14:49:22;;;;;;;5.35;1.90;;;;;;;;;;4983990;28;20038;-71
2023/07/21 14:52:09;;;;;;;2.10;1.50;;;;;;;;;;4981347;28;20062;-61
2023/07/21 14:54:54;;;;;;;4.57;2.58;;;;;;;;;;4980344;28;22259;-60
2023/07/21 14:57:40;;;;;;;4.28;1.92;;;;;;;;;;4987065;28;20447;-65
2023/07/21 15:00:25;;;;;;;4.55;1.90;;;;;;;;;;4988077;28;20030;-62
2023/07/21 15:03:10;;;;;;;3.67;1.88;;;;;;;;;;4999820;28;20088;-62
2023/07/21 15:05:55;;;;;;;5.93;2.30;;;;;;;;;;4990927;28;20042;-63
2023/07/21 15:08:40;;;;;;;6.47;2.53;;;;;;;;;;4987882;28;20030;-68
2023/07/21 15:11:26;;;;;;;6.00;2.22;;;;;;;;;;4997789;28;20393;-64
2023/07/21 15:14:11;;;;;;;3.47;1.80;;;;;;;;;;4986356;28;20118;-65
2023/07/21 15:16:56;;;;;;;4.80;1.85;;;;;;;;;;4987080;28;20022;-73
2023/07/21 15:19:41;;;;;;;3.80;2.13;;;;;;;;;;4985170;28;20034;-68
2023/07/21 15:22:27;;;;;;;4.25;2.10;;;;;;;;;;4993292;28;20471;-71
2023/07/21 15:25:12;;;;;;;3.80;1.92;;;;;;;;;;4984049;28;20030;-77
2023/07/21 15:27:58;;;;;;;8.90;1.90;;;;;;;;;;4985034;28;20038;-70
2023/07/21 15:30:45;;;;;;;4.88;1.83;;;;;;;;;;4983947;28;20473;-70
2023/07/21 15:33:31;;;;;;;3.08;1.73;;;;;;;;;;4990268;28;20500;-72
2023/07/21 15:36:16;;;;;;;3.38;2.10;;;;;;;;;;5001751;28;20030;-70
2023/07/21 15:39:03;;;;;;;2.42;1.73;;;;;;;;;;4993963;28;20030;-77
2023/07/21 15:41:48;;;;;;;3.72;2.05;;;;;;;;;;4986949;28;20440;-75
2023/07/21 15:44:34;;;;;;;4.07;2.22;;;;;;;;;;4987225;28;20026;-78
2023/07/21 15:47:19;;;;;;;2.45;1.90;;;;;;;;;;4976886;28;20084;-78
2023/07/21 15:50:09;;;;;;;5.28;2.13;;;;;;;;;;5011028;28;20105;-77
2023/07/21 15:52:55;;;;;;;3.85;2.10;;;;;;;;;;5005185;28;20018;-77
2023/07/21 15:55:40;;;;;;;2.50;2.03;;;;;;;;;;5010770;28;20029;-79
2023/07/21 15:58:25;;;;;;;1.98;1.60;;;;;;;;;;5005250;28;20026;-80
2023/07/21 16:01:10;;;;;;;3.65;1.73;;;;;;;;;;5009603;28;20381;-78
2023/07/21 16:03:56;;;;;;;4.30;2.25;;;;;;;;;;5003068;28;20042;-77
2023/07/21 16:06:41;;;;;;;4.63;1.77;;;;;;;;;;4997376;28;20453;-78
2023/07/21 16:09:27;;;;;;;4.28;2.38;;;;;;;;;;4989370;28;20573;-77
2023/07/21 16:12:12;;;;;;;3.03;2.00;;;;;;;;;;5006805;28;20092;-78
2023/07/21 16:14:57;;;;;;;3.47;2.00;;;;;;;;;;5010087;28;20030;-78
2023/07/21 16:17:45;;;;;;;3.92;2.30;;;;;;;;;;4997296;28;20097;-78
2023/07/21 16:20:32;;;;;;;4.55;2.70;;;;;;;;;;5009776;28;20076;-72
2023/07/21 16:23:17;;;;;;;3.67;2.33;;;;;;;;;;4998896;28;20444;-75
2023/07/21 16:26:10;;;;;;;4.32;2.40;;;;;;;;;;5010039;28;20113;-75
2023/07/21 16:28:55;;;;;;;2.53;1.75;;;;;;;;;;5001510;28;20133;-75
2023/07/21 16:31:40;;;;;;;5.80;2.20;;;;;;;;;;4994537;28;20033;-74
2023/07/21 16:34:31;;;;;;;2.58;1.65;;;;;;;;;;5001978;28;20065;-77